Airfield :
LOGIN :

Register | Disclaimer

   EN    FR    IT 

 










Legend :    VFR   Marginal VFR   IFR   Intensive IFR   Very Intensive IFR
Visi :
Ceiling :
>= 8 km
>= 3000ft
5 to 8 km
1000 to 3000 ft
1500m to 5 km
500 to 1000 ft
800 to 1500m
200 to 500 ft
< 800m
< 200 ft
Symbols :   Thunderstorms  Fog  Heavy snow  Heavy precipitations  Wind > 20 kt
SIGMETs :     Misc.  Thunderstorms  Icing  Turbulence  Mountain Waves  Volcanic Ashes






- Airport Elevation : 218 ft
- IATA code : LBG


LFPB - Paris / Le Bourget

CURRENT METAR :
  • 211400Z AUTO 01015KT 330V030 CAVOK 11/M02 Q1023 TEMPO SCT030TCU BECMG 35015G28KT

EXPIRED METARs :
  • 211330Z AUTO 01016KT 320V030 9999 FEW048 BKN066 BKN220 11/M01 Q1023 TEMPO SCT030TCU BECMG 35015G28KT
  • 211300Z AUTO 33014KT 300V010 9999 SCT046 BKN054 BKN068 11/M00 Q1023 TEMPO SCT030TCU BECMG 35015G28KT
  • 211230Z AUTO 01014KT 330V040 9999 FEW041 SCT049 BKN064 11/M01 Q1023 TEMPO SCT030TCU BECMG 35015G28KT
  • 211200Z AUTO 36013KT 310V030 9999 BKN038/// BKN045/// BKN054/// ///TCU 11/01 Q1023 BECMG 35015G28KT
  • 211130Z AUTO 33012KT 280V360 9999 SCT034/// BKN045/// BKN068/// ///CB 10/03 Q1024 BECMG 35015G28KT
  • 211100Z AUTO 32010KT 280V360 9999 SCT041/// BKN047/// OVC054/// //////TCU 09/M00 Q1024 TEMPO 2500 SHRA BECMG 36015G25KT
  • 211030Z AUTO 34012G22KT 310V020 9999 FEW035 BKN041 BKN050 09/M00 Q1024 TEMPO 2500 SHRA SCT030TCU
  • 211000Z AUTO 34009KT 9999 SCT035 BKN044 BKN052 09/00 Q1024 TEMPO 2500 SHRA SCT030TCU BECMG 36015G25KT

TAF TAF LFPB
Valid from the 21 at 12:00 until the 22 at 12:00 UTC


211100Z 2112/2212 35015G28KT 9999 SCT035 BKN045
PROB40
TEMPO 2112/2115 SCT030TCU
BECMG 2115/2117 CAVOK
BECMG 2117/2119 02010KT
BECMG 2208/2210 03010G20KT
ATIS : +33 1 48 62 43 92



MET'MAP, your aeronautical weather chart ! - Copyright ORBIFLY December 2007 - Disclaimer

ORBIFLY MET'MAP TEAM :

Programming & Development : Alexandra Zaïnal
Original concept : Baudouin d'Aumeries
Technical & hardware support : Manuel Goepfert
Assistance : Marc-Olivier Méhu




SOURCES & CREDITS :

   NOAA